Time;durP1;ratioP1;P1;durP2;ratioP2;P2;SDS_P1;SDS_P2;PMS_P1;PMS_P2;Temp;Humidity;BMP_temperature;BMP_pressure;BME280_temperature;BME280_humidity;BME280_pressure;Samples;Min_cycle;Max_cycle;Signal;HPM_P1;HPM_P2
2022/06/04 00:01:52;;;;;;;9.93;6.57;;;12.10;99.90;;;;;;5072664;28;20048;-32
2022/06/04 00:04:18;;;;;;;7.45;5.53;;;12.10;99.90;;;;;;5072880;28;20139;-31
2022/06/04 00:06:44;;;;;;;7.15;6.25;;;12.10;99.90;;;;;;5072809;28;20081;-31
2022/06/04 00:09:11;;;;;;;8.50;5.60;;;12.10;99.90;;;;;;5089934;28;20040;-32
2022/06/04 00:17:11;;;;;;;7.90;5.95;;;12.00;99.90;;;;;;5090605;28;20040;-29
2022/06/04 00:19:38;;;;;;;9.48;6.93;;;11.90;99.90;;;;;;5092505;28;20515;-29
2022/06/04 00:22:04;;;;;;;11.57;7.40;;;11.90;99.90;;;;;;5073509;28;20040;-29
2022/06/04 00:24:30;;;;;;;9.32;6.68;;;11.90;99.90;;;;;;5089461;28;20036;-29
2022/06/04 00:26:56;;;;;;;9.23;6.60;;;11.90;99.90;;;;;;5078399;28;20036;-29
2022/06/04 00:29:22;;;;;;;9.35;6.97;;;11.90;99.90;;;;;;5056723;28;20047;-29
2022/06/04 00:31:49;;;;;;;11.55;7.38;;;11.80;99.90;;;;;;5099857;28;20032;-29
2022/06/04 00:34:15;;;;;;;9.90;7.25;;;11.80;99.90;;;;;;5091958;28;20582;-29
2022/06/04 00:36:41;;;;;;;9.10;7.15;;;11.80;99.90;;;;;;5091861;28;20032;-29
2022/06/04 00:39:07;;;;;;;9.95;6.70;;;11.80;99.90;;;;;;5072951;28;20040;-30
2022/06/04 00:42:01;;;;;;;8.65;6.60;;;11.80;99.90;;;;;;5091682;28;20036;-29
2022/06/04 00:44:29;;;;;;;10.50;6.78;;;11.80;99.90;;;;;;5091608;28;20040;-30
2022/06/04 00:47:20;;;;;;;12.60;6.85;;;11.70;99.90;;;;;;5091927;28;20445;-29
2022/06/04 00:49:45;;;;;;;10.75;7.60;;;11.70;99.90;;;;;;5079058;28;20035;-29
2022/06/04 00:52:14;;;;;;;10.55;7.30;;;11.70;99.90;;;;;;5091973;28;20481;-30
2022/06/04 00:54:41;;;;;;;13.52;7.13;;;11.70;99.90;;;;;;5091607;28;20035;-28
2022/06/04 00:57:16;;;;;;;10.45;7.15;;;11.60;99.90;;;;;;5091245;28;20036;-29
2022/06/04 01:00:02;;;;;;;8.60;7.20;;;11.60;99.90;;;;;;5091186;28;20383;-29
2022/06/04 01:02:53;;;;;;;8.52;6.50;;;11.60;99.90;;;;;;5091505;28;20040;-28
2022/06/04 01:05:47;;;;;;;9.55;7.22;;;11.60;99.90;;;;;;5089325;28;20040;-29
2022/06/04 01:08:35;;;;;;;12.95;7.95;;;11.60;99.90;;;;;;5078892;28;20067;-28
2022/06/04 01:11:19;;;;;;;8.32;7.18;;;11.50;99.90;;;;;;5085043;28;20067;-29
2022/06/04 01:14:03;;;;;;;14.27;8.77;;;11.50;99.90;;;;;;5084832;28;20188;-28
2022/06/04 01:16:43;;;;;;;13.95;8.30;;;11.50;99.90;;;;;;5077591;28;20044;-28
2022/06/04 01:19:12;;;;;;;13.13;8.10;;;11.50;99.90;;;;;;5091503;28;20044;-28
2022/06/04 01:22:07;;;;;;;13.27;8.73;;;11.40;99.90;;;;;;5090536;28;20039;-28
2022/06/04 01:24:51;;;;;;;11.63;8.27;;;11.40;99.90;;;;;;5091126;28;20269;-28
2022/06/04 01:27:28;;;;;;;11.38;7.15;;;11.40;99.90;;;;;;5084311;28;20049;-28
2022/06/04 01:30:18;;;;;;;13.40;8.80;;;11.40;99.90;;;;;;5059542;28;20530;-28
2022/06/04 01:32:55;;;;;;;14.20;8.27;;;11.40;99.90;;;;;;5090745;28;20028;-29
2022/06/04 01:35:31;;;;;;;13.07;8.73;;;11.30;99.90;;;;;;5073111;28;20069;-29
2022/06/04 01:38:24;;;;;;;18.08;9.15;;;11.30;99.90;;;;;;5090707;28;20040;-28
2022/06/04 01:41:11;;;;;;;14.07;8.50;;;11.30;99.90;;;;;;5088570;28;20032;-30
2022/06/04 01:43:49;;;;;;;13.27;9.15;;;11.20;99.90;;;;;;5083349;28;20795;-31
2022/06/04 01:46:21;;;;;;;12.30;8.70;;;11.20;99.90;;;;;;5088767;28;20063;-29
2022/06/04 01:48:51;;;;;;;13.82;8.60;;;11.10;99.90;;;;;;5076586;28;20115;-30
2022/06/04 01:51:23;;;;;;;11.63;8.48;;;11.20;99.90;;;;;;5089534;28;20157;-28
2022/06/04 01:53:54;;;;;;;13.85;8.80;;;11.10;99.90;;;;;;5089899;28;20043;-30
2022/06/04 01:56:25;;;;;;;12.68;8.50;;;11.10;99.90;;;;;;5081355;28;20152;-31
2022/06/04 01:58:55;;;;;;;9.50;8.32;;;11.10;99.90;;;;;;5089894;28;20076;-31
2022/06/04 02:01:28;;;;;;;13.30;7.78;;;11.10;99.90;;;;;;5087835;28;20063;-29
2022/06/04 02:04:03;;;;;;;13.85;8.48;;;11.10;99.90;;;;;;5079044;28;20380;-30
2022/06/04 02:06:45;;;;;;;14.13;8.68;;;11.10;99.90;;;;;;5075006;28;20533;-30
2022/06/04 02:09:15;;;;;;;13.50;8.60;;;11.00;99.90;;;;;;5059266;28;20442;-31
2022/06/04 02:11:48;;;;;;;15.00;8.60;;;11.00;99.90;;;;;;5086671;28;20028;-29
2022/06/04 02:14:14;;;;;;;;;;;11.00;99.90;;;;;;5090380;28;20032;-29
2022/06/04 02:16:49;;;;;;;13.27;10.00;;;11.00;99.90;;;;;;5090073;28;19923;-29
2022/06/04 02:19:15;;;;;;;13.27;9.13;;;11.00;99.90;;;;;;5090133;28;20140;-30
2022/06/04 02:21:41;;;;;;;13.32;9.63;;;10.90;99.90;;;;;;5086438;28;20071;-29
2022/06/04 02:24:08;;;;;;;14.05;8.73;;;10.90;99.90;;;;;;5068739;28;20517;-30
2022/06/04 02:26:35;;;;;;;17.13;8.93;;;10.90;99.90;;;;;;5071784;28;20048;-30
2022/06/04 02:29:01;;;;;;;13.05;9.30;;;10.90;99.90;;;;;;5071500;28;20117;-30
2022/06/04 02:31:48;;;;;;;13.20;8.50;;;10.90;99.90;;;;;;5091851;28;20043;-29
2022/06/04 02:34:30;;;;;;;12.93;9.43;;;10.80;99.90;;;;;;5087910;28;20071;-30
2022/06/04 02:37:24;;;;;;;18.42;9.80;;;10.80;99.90;;;;;;5092261;28;20123;-29
2022/06/04 02:39:59;;;;;;;15.45;9.10;;;10.80;99.90;;;;;;5094005;28;20154;-29
2022/06/04 02:42:46;;;;;;;13.07;8.20;;;10.80;99.90;;;;;;5094061;28;20518;-28
2022/06/04 02:45:27;;;;;;;11.85;8.27;;;10.70;99.90;;;;;;5094014;28;20036;-29
2022/06/04 02:47:55;;;;;;;15.82;8.90;;;10.70;99.90;;;;;;5094166;28;20093;-29
2022/06/04 02:50:37;;;;;;;13.35;9.00;;;10.70;99.90;;;;;;5075430;28;20487;-29
2022/06/04 02:53:05;;;;;;;14.75;8.88;;;10.80;99.90;;;;;;5094149;28;20036;-30
2022/06/04 02:55:36;;;;;;;13.85;8.43;;;10.70;99.90;;;;;;5094156;28;20509;-29
2022/06/04 02:58:09;;;;;;;15.30;7.95;;;10.70;99.90;;;;;;5093689;28;20039;-28
2022/06/04 03:00:35;;;;;;;12.95;9.38;;;10.70;99.90;;;;;;5093855;28;20081;-28
2022/06/04 03:03:01;;;;;;;11.90;8.77;;;10.60;99.90;;;;;;5093337;28;20036;-30
2022/06/04 03:05:28;;;;;;;15.38;8.90;;;10.60;99.90;;;;;;5093967;28;20074;-30
2022/06/04 03:08:02;;;;;;;10.90;7.90;;;10.60;99.90;;;;;;5093717;28;20529;-30
2022/06/04 03:10:31;;;;;;;14.90;8.75;;;10.70;99.90;;;;;;5093319;28;20050;-30
2022/06/04 03:12:57;;;;;;;13.90;9.00;;;10.60;99.90;;;;;;5093490;28;20169;-30
2022/06/04 03:15:23;;;;;;;10.73;8.23;;;10.60;99.90;;;;;;5093507;28;20445;-29
2022/06/04 03:17:50;;;;;;;11.93;8.30;;;10.60;99.90;;;;;;5074981;28;20402;-28
2022/06/04 03:20:22;;;;;;;12.02;7.78;;;10.60;99.90;;;;;;5093569;28;20117;-30
2022/06/04 03:22:49;;;;;;;11.65;8.38;;;10.60;99.90;;;;;;5093497;28;20036;-29
2022/06/04 03:25:15;;;;;;;15.68;8.43;;;10.60;99.90;;;;;;5093397;28;20047;-31
2022/06/04 03:27:41;;;;;;;12.77;7.60;;;10.60;99.90;;;;;;5093523;28;20498;-28
2022/06/04 03:30:08;;;;;;;12.02;8.10;;;10.60;99.90;;;;;;5093020;28;20129;-29
2022/06/04 03:32:34;;;;;;;10.98;7.57;;;10.60;99.90;;;;;;5075414;28;20064;-28
2022/06/04 03:35:00;;;;;;;16.60;8.98;;;10.60;99.90;;;;;;5093355;28;20036;-29
2022/06/04 03:37:26;;;;;;;13.10;8.07;;;10.60;99.90;;;;;;5093307;28;20339;-29
2022/06/04 03:39:51;;;;;;;16.45;8.48;;;10.60;99.90;;;;;;5092740;28;20136;-28
2022/06/04 03:42:17;;;;;;;11.57;7.70;;;10.60;99.90;;;;;;5075232;28;20461;-28
2022/06/04 03:44:47;;;;;;;12.52;7.95;;;10.60;99.90;;;;;;5093125;28;20044;-28
2022/06/04 03:47:16;;;;;;;14.82;7.35;;;10.60;99.90;;;;;;5092753;28;20093;-29
2022/06/04 03:49:42;;;;;;;12.20;7.43;;;10.60;99.90;;;;;;5092561;28;20113;-28
2022/06/04 03:52:10;;;;;;;11.15;7.60;;;10.60;99.90;;;;;;5092750;28;20040;-28
2022/06/04 03:54:54;;;;;;;10.40;7.10;;;10.60;99.90;;;;;;5092366;28;20101;-30
2022/06/04 03:57:45;;;;;;;;;;;10.70;99.90;;;;;;5093214;28;20082;-28
2022/06/04 04:00:38;;;;;;;13.77;8.57;;;10.70;99.90;;;;;;5092383;28;20008;-30
2022/06/04 04:03:11;;;;;;;13.05;7.90;;;10.70;99.90;;;;;;5092860;28;20376;-29
2022/06/04 04:05:44;;;;;;;11.07;8.00;;;10.70;99.90;;;;;;5074513;28;20048;-30
2022/06/04 04:08:10;;;;;;;12.03;8.17;;;10.80;99.90;;;;;;5092547;28;20510;-28
2022/06/04 04:10:38;;;;;;;11.52;7.82;;;10.80;99.90;;;;;;5092421;28;20067;-28
2022/06/04 04:13:05;;;;;;;12.15;8.38;;;10.80;99.90;;;;;;5092773;28;20040;-29
2022/06/04 04:15:30;;;;;;;11.38;6.90;;;10.90;99.90;;;;;;5092998;28;20036;-27
2022/06/04 04:17:57;;;;;;;11.07;7.40;;;10.90;99.90;;;;;;5092781;28;20578;-29
2022/06/04 04:20:26;;;;;;;12.23;7.40;;;10.90;99.90;;;;;;5092441;28;20043;-28
2022/06/04 04:22:53;;;;;;;10.77;7.97;;;10.90;99.90;;;;;;5092271;28;20137;-29
2022/06/04 04:25:22;;;;;;;14.27;8.35;;;10.90;99.90;;;;;;5092247;28;20496;-29
2022/06/04 04:27:48;;;;;;;11.43;8.60;;;11.00;99.90;;;;;;5091915;28;20498;-31
2022/06/04 04:30:17;;;;;;;15.30;9.18;;;11.00;99.90;;;;;;5092127;28;20113;-28
2022/06/04 04:32:43;;;;;;;15.25;8.88;;;11.00;99.90;;;;;;5092153;28;20055;-29
2022/06/04 04:35:14;;;;;;;11.15;8.27;;;11.10;99.90;;;;;;5092280;28;20115;-28
2022/06/04 04:37:40;;;;;;;10.85;8.65;;;11.10;99.90;;;;;;5092178;28;20120;-28
2022/06/04 04:40:08;;;;;;;11.75;7.95;;;11.10;99.90;;;;;;5092092;28;20119;-28
2022/06/04 04:42:34;;;;;;;13.65;8.40;;;11.10;99.90;;;;;;5074783;28;20097;-29
2022/06/04 04:44:59;;;;;;;12.35;8.40;;;11.20;99.90;;;;;;5091984;28;20048;-31
2022/06/04 04:47:25;;;;;;;13.00;8.27;;;11.20;99.90;;;;;;5093849;28;20090;-29
2022/06/04 04:49:51;;;;;;;12.05;8.68;;;11.20;99.90;;;;;;5090662;28;20086;-32
2022/06/04 04:52:17;;;;;;;11.57;7.90;;;11.30;99.90;;;;;;5090007;28;20225;-31
2022/06/04 04:54:43;;;;;;;11.43;7.45;;;11.30;99.90;;;;;;5090288;28;20051;-31
2022/06/04 04:57:09;;;;;;;11.23;7.60;;;11.40;99.90;;;;;;5087849;28;20036;-31
2022/06/04 04:59:35;;;;;;;9.85;7.35;;;11.40;99.90;;;;;;5089502;28;20487;-33
2022/06/04 05:02:00;;;;;;;9.35;6.75;;;11.50;99.90;;;;;;5090648;28;20040;-32
2022/06/04 05:04:26;;;;;;;10.90;6.82;;;11.50;99.90;;;;;;5084141;28;20048;-34
2022/06/04 05:06:52;;;;;;;11.32;6.75;;;11.60;99.90;;;;;;5082920;28;20043;-32
2022/06/04 05:09:18;;;;;;;8.43;7.15;;;11.70;99.90;;;;;;5086315;28;20160;-31
2022/06/04 05:11:44;;;;;;;9.48;6.90;;;11.70;99.90;;;;;;5078241;28;20032;-32
2022/06/04 05:14:10;;;;;;;11.13;6.75;;;11.80;99.90;;;;;;5088768;28;20036;-31
2022/06/04 05:16:38;;;;;;;10.23;6.43;;;11.90;99.90;;;;;;5088968;28;20059;-32
2022/06/04 05:19:04;;;;;;;10.50;7.10;;;12.00;99.90;;;;;;5071980;28;20044;-32
2022/06/04 05:21:43;;;;;;;8.80;6.80;;;12.00;99.90;;;;;;5086863;28;20495;-32
2022/06/04 05:24:19;;;;;;;9.02;7.13;;;12.10;99.90;;;;;;5084425;28;20063;-32
2022/06/04 05:26:46;;;;;;;10.75;6.07;;;12.30;99.90;;;;;;5086676;28;20487;-32
2022/06/04 05:29:13;;;;;;;8.82;6.82;;;12.40;99.90;;;;;;5081386;28;20037;-35
2022/06/04 05:31:42;;;;;;;8.98;6.60;;;12.50;99.90;;;;;;5082064;28;20042;-33
2022/06/04 05:34:09;;;;;;;7.95;5.80;;;12.60;99.90;;;;;;5082623;28;20032;-32
2022/06/04 05:36:36;;;;;;;8.57;6.00;;;12.80;99.90;;;;;;5091074;28;20051;-31
2022/06/04 05:39:04;;;;;;;9.23;5.85;;;12.90;99.90;;;;;;5075886;28;20043;-31
2022/06/04 05:41:30;;;;;;;10.30;6.53;;;13.00;99.90;;;;;;5070323;28;20538;-34
2022/06/04 05:43:56;;;;;;;7.55;5.60;;;13.10;99.90;;;;;;5090113;28;20036;-34
2022/06/04 05:46:22;;;;;;;7.95;5.95;;;13.20;99.90;;;;;;5090324;28;20058;-33
2022/06/04 05:48:49;;;;;;;9.60;5.65;;;13.30;99.90;;;;;;5071348;28;20041;-32
2022/06/04 05:51:21;;;;;;;13.30;6.30;;;13.30;99.90;;;;;;5072195;28;20047;-31
2022/06/04 05:53:48;;;;;;;6.88;5.28;;;13.40;99.90;;;;;;5090322;28;20032;-31
2022/06/04 05:56:19;;;;;;;7.63;5.70;;;13.50;99.90;;;;;;5084541;28;20028;-31
2022/06/04 05:58:50;;;;;;;7.93;5.28;;;13.60;99.90;;;;;;5073857;28;20496;-31
2022/06/04 06:01:19;;;;;;;7.65;5.72;;;13.70;99.90;;;;;;5076392;28;20115;-33
2022/06/04 06:03:46;;;;;;;6.88;5.35;;;13.90;99.90;;;;;;5061653;28;20062;-31
2022/06/04 06:06:19;;;;;;;8.32;5.60;;;14.00;99.90;;;;;;5079540;28;20097;-33
2022/06/04 06:08:46;;;;;;;8.80;5.63;;;14.00;99.90;;;;;;5086287;28;20050;-33
2022/06/04 06:11:14;;;;;;;5.93;5.05;;;14.00;99.90;;;;;;5086364;28;20388;-32
2022/06/04 06:13:41;;;;;;;6.18;4.70;;;13.90;99.90;;;;;;5082973;28;20059;-34
2022/06/04 06:16:14;;;;;;;7.47;5.30;;;13.90;99.90;;;;;;5064957;28;20036;-30
2022/06/04 06:18:40;;;;;;;9.45;5.53;;;14.00;99.90;;;;;;5080713;28;20032;-33
2022/06/04 06:21:08;;;;;;;6.10;5.13;;;14.10;99.90;;;;;;5084626;28;20384;-31
2022/06/04 06:23:34;;;;;;;7.68;5.95;;;14.20;99.90;;;;;;5059503;28;20467;-32
2022/06/04 06:26:21;;;;;;;7.13;5.22;;;14.30;99.90;;;;;;5080487;28;20422;-35
2022/06/04 06:28:48;;;;;;;8.45;5.70;;;14.40;99.90;;;;;;5077967;28;20096;-33
2022/06/04 06:31:17;;;;;;;7.20;5.40;;;14.40;99.90;;;;;;5082506;28;20125;-32
2022/06/04 06:33:43;;;;;;;6.18;5.00;;;14.40;99.90;;;;;;5078400;28;20028;-34
2022/06/04 06:36:12;;;;;;;8.65;5.68;;;14.60;99.90;;;;;;5076471;28;20031;-33
2022/06/04 06:38:38;;;;;;;8.52;5.70;;;14.60;99.90;;;;;;5062571;28;20032;-34
2022/06/04 06:41:05;;;;;;;8.25;5.53;;;14.60;99.90;;;;;;5078684;28;20035;-32
2022/06/04 06:43:36;;;;;;;5.88;5.20;;;14.70;99.90;;;;;;5081321;28;20043;-31
2022/06/04 06:46:10;;;;;;;8.93;5.82;;;14.80;99.90;;;;;;5082976;28;20040;-33
2022/06/04 06:48:40;;;;;;;8.15;5.43;;;14.90;99.90;;;;;;5084336;28;20093;-34
2022/06/04 06:51:18;;;;;;;7.22;5.25;;;15.00;99.90;;;;;;5073054;28;20499;-33
2022/06/04 06:53:43;;;;;;;5.95;4.63;;;15.20;99.90;;;;;;5079949;28;20032;-31
2022/06/04 06:56:31;;;;;;;5.40;4.88;;;15.30;99.90;;;;;;5081916;28;20040;-31
2022/06/04 06:58:58;;;;;;;7.03;5.28;;;15.40;99.90;;;;;;5092493;28;20050;-33
2022/06/04 07:01:27;;;;;;;5.95;5.25;;;15.60;99.90;;;;;;5091194;28;20115;-34
2022/06/04 07:03:55;;;;;;;8.70;5.57;;;15.70;99.90;;;;;;5065026;28;20044;-32
2022/06/04 07:06:52;;;;;;;6.75;5.50;;;15.80;99.90;;;;;;5081100;28;20044;-34
2022/06/04 07:09:23;;;;;;;5.13;4.60;;;16.00;99.90;;;;;;5075886;28;20186;-32
2022/06/04 07:11:49;;;;;;;5.90;4.85;;;16.10;99.90;;;;;;5085319;28;20040;-33
2022/06/04 07:14:16;;;;;;;6.22;4.97;;;16.10;99.90;;;;;;5061921;28;20063;-33
2022/06/04 07:16:44;;;;;;;6.10;4.88;;;16.10;99.90;;;;;;5070236;28;20036;-32
2022/06/04 07:19:12;;;;;;;7.50;4.93;;;16.10;99.90;;;;;;5077514;28;20055;-32
2022/06/04 07:21:38;;;;;;;6.80;5.00;;;16.00;99.90;;;;;;5073211;28;20324;-31
2022/06/04 07:24:04;;;;;;;6.18;4.78;;;16.10;99.90;;;;;;5066369;28;20063;-35
2022/06/04 07:26:30;;;;;;;4.72;3.90;;;16.20;99.90;;;;;;5078026;28;20449;-32
2022/06/04 07:28:56;;;;;;;5.38;4.55;;;16.30;99.90;;;;;;5088019;28;20089;-33
2022/06/04 07:31:22;;;;;;;5.40;4.82;;;16.40;99.90;;;;;;5074947;28;20086;-32
2022/06/04 07:33:50;;;;;;;6.05;5.05;;;16.60;99.90;;;;;;5075510;28;20126;-32
2022/06/04 07:36:23;;;;;;;5.32;4.40;;;16.70;99.90;;;;;;5084150;28;20024;-34
2022/06/04 07:38:49;;;;;;;5.00;4.50;;;16.80;99.90;;;;;;5087032;28;20491;-30
2022/06/04 07:41:22;;;;;;;6.53;4.95;;;16.80;99.90;;;;;;5079346;28;20043;-32
2022/06/04 07:43:48;;;;;;;4.65;4.20;;;17.10;99.90;;;;;;5090913;28;20040;-31
2022/06/04 07:46:15;;;;;;;5.40;4.55;;;17.30;99.90;;;;;;5083340;28;20076;-31
2022/06/04 07:48:41;;;;;;;8.45;4.70;;;17.50;99.90;;;;;;5058641;28;20131;-32
2022/06/04 07:51:07;;;;;;;5.53;4.78;;;17.60;99.90;;;;;;5087145;28;20503;-34
2022/06/04 07:53:34;;;;;;;5.40;4.63;;;17.80;99.90;;;;;;5091597;28;20028;-31
2022/06/04 07:56:08;;;;;;;4.90;4.30;;;18.00;99.90;;;;;;5088279;28;20036;-31
2022/06/04 07:58:35;;;;;;;5.63;4.57;;;18.10;99.90;;;;;;5088719;28;20046;-32
2022/06/04 08:01:03;;;;;;;5.30;4.53;;;18.30;99.90;;;;;;5090759;28;20032;-32
2022/06/04 08:03:30;;;;;;;7.15;4.85;;;18.40;99.90;;;;;;5087595;28;20093;-32
2022/06/04 08:05:57;;;;;;;7.50;4.55;;;18.60;99.90;;;;;;5089855;28;20093;-31
2022/06/04 08:08:23;;;;;;;9.05;4.78;;;18.90;99.90;;;;;;5067902;28;20043;-31
2022/06/04 08:10:49;;;;;;;6.80;4.38;;;19.10;99.90;;;;;;5088004;28;20032;-31
2022/06/04 08:15:45;;;;;;;5.85;4.68;;;19.40;99.90;;;;;;5091245;28;20044;-31
2022/06/04 08:18:11;;;;;;;6.57;4.50;;;19.70;99.90;;;;;;5087578;28;20032;-32
2022/06/04 08:20:44;;;;;;;7.13;4.63;;;19.90;99.90;;;;;;5091152;28;20040;-31
2022/06/04 08:23:11;;;;;;;7.07;4.90;;;20.00;99.90;;;;;;5092668;28;20493;-30
2022/06/04 08:25:46;;;;;;;4.80;4.30;;;20.00;99.10;;;;;;5092305;28;20486;-31
2022/06/04 08:28:14;;;;;;;4.88;4.38;;;19.80;98.30;;;;;;5092465;28;20050;-31
2022/06/04 08:30:41;;;;;;;5.97;4.55;;;19.70;99.70;;;;;;5091739;28;20079;-29
2022/06/04 08:33:07;;;;;;;7.03;4.70;;;19.70;99.90;;;;;;5091719;28;20044;-30
2022/06/04 08:35:33;;;;;;;6.22;4.57;;;19.90;99.90;;;;;;5091702;28;20075;-29
2022/06/04 08:37:59;;;;;;;4.80;4.32;;;19.80;99.80;;;;;;5091808;28;20063;-30
2022/06/04 08:40:35;;;;;;;5.93;4.40;;;20.10;99.90;;;;;;5092021;28;20125;-29
2022/06/04 08:43:12;;;;;;;4.75;4.30;;;20.30;97.80;;;;;;5092202;28;20028;-32
2022/06/04 08:45:39;;;;;;;6.35;4.80;;;20.40;96.30;;;;;;5092282;28;20499;-32
2022/06/04 08:48:14;;;;;;;6.13;4.72;;;20.60;97.80;;;;;;5091991;28;20120;-29
2022/06/04 08:50:41;;;;;;;5.47;4.47;;;20.70;93.40;;;;;;5091736;28;20040;-30
2022/06/04 08:53:25;;;;;;;6.10;4.60;;;20.70;96.20;;;;;;5092067;28;20035;-30
2022/06/04 08:58:50;;;;;;;6.10;5.13;;;20.80;94.30;;;;;;5091522;28;21746;-29
2022/06/04 09:01:25;;;;;;;5.10;4.57;;;20.90;95.00;;;;;;5091857;28;20061;-29
2022/06/04 09:04:06;;;;;;;5.57;4.18;;;21.00;91.20;;;;;;5091746;28;20114;-29
2022/06/04 09:06:44;;;;;;;5.45;4.28;;;21.20;92.60;;;;;;5055607;28;20041;-31
2022/06/04 09:09:19;;;;;;;7.70;4.40;;;21.40;94.00;;;;;;5070821;28;20044;-32
2022/06/04 09:12:10;;;;;;;5.63;4.80;;;21.60;92.60;;;;;;5053380;28;20048;-30
2022/06/04 09:14:48;;;;;;;5.05;4.50;;;22.00;90.90;;;;;;5070939;28;20032;-29
2022/06/04 09:17:25;;;;;;;6.35;4.82;;;22.20;91.50;;;;;;5071024;28;20124;-30
2022/06/04 09:19:56;;;;;;;5.35;4.47;;;22.30;91.50;;;;;;5070663;28;20097;-29
2022/06/04 09:22:27;;;;;;;7.00;4.90;;;22.50;92.70;;;;;;5071299;28;20044;-31
2022/06/04 09:24:53;;;;;;;6.47;4.88;;;22.50;91.70;;;;;;5071081;28;20040;-30
2022/06/04 09:27:41;;;;;;;4.80;4.10;;;22.70;91.10;;;;;;5071209;28;20059;-30
2022/06/04 09:30:24;;;;;;;5.28;4.53;;;22.70;87.80;;;;;;5071275;28;20045;-30
2022/06/04 09:32:49;;;;;;;5.75;4.13;;;23.10;82.80;;;;;;5071023;28;20442;-31
2022/06/04 09:35:21;;;;;;;4.10;3.70;;;23.60;91.50;;;;;;5071270;28;20048;-32
2022/06/04 09:37:48;;;;;;;5.93;4.40;;;24.00;90.00;;;;;;5071077;28;20110;-30
2022/06/04 09:40:34;;;;;;;4.97;3.92;;;24.40;87.30;;;;;;5053274;28;20062;-31
2022/06/04 09:43:15;;;;;;;4.53;4.10;;;24.10;71.70;;;;;;5078799;28;20497;-29
2022/06/04 09:45:50;;;;;;;4.32;3.92;;;24.00;76.30;;;;;;5093058;28;20423;-31
2022/06/04 09:48:31;;;;;;;5.40;4.43;;;23.90;82.20;;;;;;5095523;28;20094;-30
2022/06/04 09:51:17;;;;;;;6.43;4.47;;;24.30;78.50;;;;;;5095490;28;20118;-32
2022/06/04 09:53:47;;;;;;;5.40;3.95;;;24.70;67.10;;;;;;5095343;28;20115;-29
2022/06/04 09:56:15;;;;;;;5.55;4.55;;;25.10;73.70;;;;;;5095111;28;20449;-29
2022/06/04 09:58:46;;;;;;;5.00;4.55;;;25.10;68.00;;;;;;5095020;28;20505;-31
2022/06/04 10:01:18;;;;;;;4.45;4.05;;;25.10;63.70;;;;;;5060198;28;20104;-29
2022/06/04 10:03:57;;;;;;;4.63;4.05;;;24.80;54.60;;;;;;5095367;28;20044;-29
2022/06/04 10:06:26;;;;;;;5.20;4.22;;;24.50;67.50;;;;;;5094975;28;20040;-31
2022/06/04 10:11:57;;;;;;;5.07;4.68;;;23.90;61.10;;;;;;5094422;28;20075;-31
2022/06/04 10:14:39;;;;;;;4.78;4.28;;;23.70;63.90;;;;;;5076843;28;20439;-30
2022/06/04 10:17:16;;;;;;;4.67;4.10;;;23.60;67.50;;;;;;5093851;28;20044;-30
2022/06/04 10:19:51;;;;;;;5.13;4.22;;;23.40;73.50;;;;;;5058694;28;20397;-29
2022/06/04 10:22:18;;;;;;;5.47;4.70;;;23.20;71.20;;;;;;5090854;28;20028;-29
2022/06/04 10:24:59;;;;;;;6.13;4.95;;;23.30;73.70;;;;;;5091654;28;20442;-31
2022/06/04 10:27:37;;;;;;;6.80;4.85;;;23.30;76.20;;;;;;5092133;28;20059;-30
2022/06/04 10:30:14;;;;;;;5.82;4.40;;;23.40;69.60;;;;;;5090829;28;20105;-33
2022/06/04 10:33:08;;;;;;;5.50;4.20;;;23.60;76.00;;;;;;5066284;28;20065;-33
2022/06/04 10:35:34;;;;;;;6.88;4.25;;;24.00;76.10;;;;;;5093626;28;20264;-32
2022/06/04 10:38:22;;;;;;;6.72;4.45;;;24.20;75.50;;;;;;5071061;28;20036;-31
2022/06/04 10:41:14;;;;;;;6.25;4.82;;;24.20;65.50;;;;;;5092291;28;20028;-32
2022/06/04 10:44:12;;;;;;;4.70;4.20;;;24.40;67.00;;;;;;5085495;28;20032;-33
2022/06/04 10:46:44;;;;;;;6.30;4.20;;;24.70;66.80;;;;;;5085211;28;20063;-32
2022/06/04 10:49:28;;;;;;;4.68;3.88;;;24.70;60.70;;;;;;5090201;28;20082;-32
2022/06/04 10:52:09;;;;;;;4.40;4.00;;;24.90;66.60;;;;;;5089875;28;20036;-32
2022/06/04 10:54:49;;;;;;;4.88;4.28;;;25.00;58.20;;;;;;5091376;28;20040;-32
2022/06/04 10:57:42;;;;;;;4.32;3.92;;;25.00;58.30;;;;;;5091626;28;20545;-32
2022/06/04 11:00:29;;;;;;;6.93;4.40;;;25.30;59.10;;;;;;5083477;28;20044;-33
2022/06/04 11:03:02;;;;;;;5.20;3.78;;;25.60;59.40;;;;;;5079567;28;20059;-33
2022/06/04 11:06:06;;;;;;;4.78;4.38;;;25.70;63.30;;;;;;5087984;28;20071;-33
2022/06/04 11:08:44;;;;;;;5.15;4.40;;;26.10;59.70;;;;;;5063030;28;20050;-33
2022/06/04 11:11:22;;;;;;;4.63;4.20;;;26.20;58.10;;;;;;5081722;28;20037;-33
2022/06/04 11:13:53;;;;;;;4.82;4.43;;;26.10;59.20;;;;;;5077849;28;20047;-31
2022/06/04 11:16:30;;;;;;;4.57;4.10;;;26.00;53.80;;;;;;5074058;28;20040;-31
2022/06/04 11:19:03;;;;;;;5.65;4.95;;;26.30;56.70;;;;;;5074222;28;20398;-31
2022/06/04 11:21:53;;;;;;;5.28;3.70;;;26.30;56.00;;;;;;5089579;28;20479;-31
2022/06/04 11:24:27;;;;;;;5.95;4.53;;;26.50;55.30;;;;;;5091857;28;20508;-32
2022/06/04 11:26:57;;;;;;;4.75;4.07;;;26.40;55.50;;;;;;5072250;28;20044;-33
2022/06/04 11:29:23;;;;;;;6.18;4.78;;;26.60;55.70;;;;;;5071903;28;20127;-33
2022/06/04 11:32:06;;;;;;;4.47;4.05;;;26.70;53.80;;;;;;5086530;28;20542;-32
2022/06/04 11:34:50;;;;;;;4.10;3.80;;;26.70;54.30;;;;;;5086848;28;20521;-30
2022/06/04 11:37:37;;;;;;;4.53;3.72;;;27.00;52.80;;;;;;5086991;28;20119;-31
2022/06/04 11:40:27;;;;;;;5.40;3.55;;;27.20;52.30;;;;;;5087222;28;20090;-30
2022/06/04 11:43:15;;;;;;;5.07;4.03;;;27.20;48.20;;;;;;5089266;28;20312;-31
2022/06/04 11:46:04;;;;;;;4.30;3.95;;;27.20;50.90;;;;;;5091411;28;20044;-31
2022/06/04 11:48:53;;;;;;;5.88;4.00;;;27.50;47.80;;;;;;5093051;28;20045;-30
2022/06/04 11:51:37;;;;;;;5.82;3.83;;;27.50;50.80;;;;;;5092475;28;20040;-31
2022/06/04 11:54:28;;;;;;;4.53;3.47;;;27.70;48.40;;;;;;5058339;28;20459;-31
2022/06/04 11:57:32;;;;;;;4.07;3.22;;;27.80;49.10;;;;;;5093637;28;20506;-32
2022/06/04 12:00:04;;;;;;;3.53;3.10;;;27.80;47.30;;;;;;5075367;28;20105;-32
2022/06/04 12:02:48;;;;;;;5.40;3.23;;;27.90;48.50;;;;;;5093492;28;20420;-31
2022/06/04 12:05:40;;;;;;;4.57;3.20;;;27.90;47.40;;;;;;5093707;28;20376;-31
2022/06/04 12:08:10;;;;;;;3.85;2.78;;;28.10;48.10;;;;;;5093220;28;20050;-31
2022/06/04 12:11:10;;;;;;;3.45;2.97;;;28.20;47.90;;;;;;5073460;28;20037;-31
2022/06/04 12:13:45;;;;;;;3.42;2.75;;;28.60;47.50;;;;;;5082210;28;20502;-32
2022/06/04 12:16:29;;;;;;;8.30;3.28;;;28.70;46.20;;;;;;5079945;28;20031;-32
2022/06/04 12:25:06;;;;;;;3.65;2.90;;;28.80;45.80;;;;;;5088169;28;20527;-32
2022/06/04 12:27:33;;;;;;;3.22;2.90;;;28.30;44.70;;;;;;5083082;28;20043;-32
2022/06/04 12:30:00;;;;;;;3.45;2.70;;;28.10;43.80;;;;;;5090814;28;20091;-32
2022/06/04 12:32:31;;;;;;;3.47;2.53;;;27.80;44.30;;;;;;5091667;28;20546;-32
2022/06/04 12:35:09;;;;;;;4.15;3.20;;;28.10;45.60;;;;;;5091762;28;20042;-35
2022/06/04 12:37:37;;;;;;;3.35;3.03;;;28.30;44.70;;;;;;5083045;28;20038;-32
2022/06/04 12:40:24;;;;;;;3.28;2.60;;;28.20;44.50;;;;;;5091339;28;20036;-32
2022/06/04 12:43:14;;;;;;;3.30;2.78;;;28.50;45.00;;;;;;5091523;28;20105;-31
2022/06/04 12:45:45;;;;;;;5.72;2.67;;;28.90;45.70;;;;;;5067489;28;20047;-34
2022/06/04 12:48:37;;;;;;;4.05;3.00;;;29.10;45.70;;;;;;5072209;28;20044;-34
2022/06/04 12:51:10;;;;;;;4.35;2.85;;;29.50;42.40;;;;;;5090941;28;20054;-32
2022/06/04 12:53:55;;;;;;;2.97;2.28;;;29.60;44.20;;;;;;5084572;28;20028;-32
2022/06/04 12:56:36;;;;;;;3.15;2.85;;;29.50;42.80;;;;;;5089973;28;20398;-31
2022/06/04 12:59:05;;;;;;;3.20;3.00;;;29.00;42.20;;;;;;5086370;28;20104;-32
2022/06/04 13:01:32;;;;;;;4.63;2.58;;;28.60;43.20;;;;;;5090672;28;20044;-32
2022/06/04 13:04:09;;;;;;;2.95;2.75;;;28.60;44.20;;;;;;5091309;28;20505;-32
2022/06/04 13:06:55;;;;;;;7.65;3.67;;;28.70;44.10;;;;;;5090642;28;20507;-33
2022/06/04 13:09:47;;;;;;;2.97;2.60;;;28.80;44.50;;;;;;5089852;28;20040;-33
2022/06/04 13:12:25;;;;;;;6.07;3.27;;;28.90;43.60;;;;;;5070176;28;20445;-32
2022/06/04 13:15:29;;;;;;;3.97;2.70;;;28.50;44.90;;;;;;5072443;28;20032;-32
2022/06/04 13:17:55;;;;;;;4.50;3.13;;;28.70;45.20;;;;;;5084355;28;20032;-32
2022/06/04 13:20:46;;;;;;;4.28;2.85;;;28.90;45.70;;;;;;5089740;28;20032;-32
2022/06/04 13:23:32;;;;;;;6.32;2.90;;;28.70;43.60;;;;;;5090481;28;20579;-33
2022/06/04 13:26:56;;;;;;;4.38;2.90;;;28.30;43.40;;;;;;5073523;28;20055;-34
2022/06/04 13:29:31;;;;;;;3.42;3.03;;;28.10;45.60;;;;;;5004002;28;20053;-31
2022/06/04 13:32:00;;;;;;;3.97;3.10;;;27.80;45.50;;;;;;4998615;28;20034;-33
2022/06/04 13:34:31;;;;;;;3.28;2.97;;;27.60;46.30;;;;;;5053676;28;20403;-32
2022/06/04 13:37:03;;;;;;;4.75;3.53;;;27.40;46.80;;;;;;5090408;28;20044;-32